Аэропорт: Ширак. Гюмри

ICAO: UDSG

METAR:
2021-01-27 04:30:00
UDSG 270430Z 04004KT 7000 NSC M17/M20 Q1022 R02/CLRD70 NOSIG
METAR:
2021-01-26 23:07:00
TAF UDSG 262307Z 2700/2724 24006KT 5000 BR SCT040 TEMPO 2700/2706 0800 FZFG